sensor_id;sensor_type;location;lat;lon;timestamp;P1;durP1;ratioP1;P2;durP2;ratioP2
69629;SDS011;56857;52.212;5.496;2023-03-14T00:02:16;16.45;;;5.38;;
69629;SDS011;56857;52.212;5.496;2023-03-14T00:04:42;19.80;;;5.25;;
69629;SDS011;56857;52.212;5.496;2023-03-14T00:07:07;20.73;;;5.38;;
69629;SDS011;56857;52.212;5.496;2023-03-14T00:09:34;18.23;;;4.72;;
69629;SDS011;56857;52.212;5.496;2023-03-14T00:12:00;16.17;;;5.53;;
69629;SDS011;56857;52.212;5.496;2023-03-14T00:14:25;21.95;;;4.78;;
69629;SDS011;56857;52.212;5.496;2023-03-14T00:16:51;18.15;;;4.78;;
69629;SDS011;56857;52.212;5.496;2023-03-14T00:19:16;16.45;;;4.93;;
69629;SDS011;56857;52.212;5.496;2023-03-14T00:21:41;19.20;;;4.87;;
69629;SDS011;56857;52.212;5.496;2023-03-14T00:24:07;18.90;;;4.53;;
69629;SDS011;56857;52.212;5.496;2023-03-14T00:26:33;21.20;;;4.22;;
69629;SDS011;56857;52.212;5.496;2023-03-14T00:28:59;14.82;;;4.75;;
69629;SDS011;56857;52.212;5.496;2023-03-14T00:31:24;20.13;;;5.55;;
69629;SDS011;56857;52.212;5.496;2023-03-14T00:33:51;18.73;;;4.43;;
69629;SDS011;56857;52.212;5.496;2023-03-14T00:36:17;17.83;;;5.50;;
69629;SDS011;56857;52.212;5.496;2023-03-14T00:38:43;18.48;;;4.80;;
69629;SDS011;56857;52.212;5.496;2023-03-14T00:41:10;17.63;;;4.57;;
69629;SDS011;56857;52.212;5.496;2023-03-14T00:43:38;19.40;;;4.43;;
69629;SDS011;56857;52.212;5.496;2023-03-14T00:46:03;25.20;;;5.53;;
69629;SDS011;56857;52.212;5.496;2023-03-14T00:48:29;15.90;;;4.30;;
69629;SDS011;56857;52.212;5.496;2023-03-14T00:50:55;19.08;;;4.20;;
69629;SDS011;56857;52.212;5.496;2023-03-14T00:53:20;19.52;;;3.75;;
69629;SDS011;56857;52.212;5.496;2023-03-14T00:55:46;22.08;;;4.07;;
69629;SDS011;56857;52.212;5.496;2023-03-14T00:58:12;14.57;;;3.60;;
69629;SDS011;56857;52.212;5.496;2023-03-14T01:00:39;16.77;;;4.10;;
69629;SDS011;56857;52.212;5.496;2023-03-14T01:03:04;13.95;;;3.20;;
69629;SDS011;56857;52.212;5.496;2023-03-14T01:05:30;17.27;;;3.25;;
69629;SDS011;56857;52.212;5.496;2023-03-14T01:07:56;14.13;;;3.00;;
69629;SDS011;56857;52.212;5.496;2023-03-14T01:10:22;12.57;;;2.53;;
69629;SDS011;56857;52.212;5.496;2023-03-14T01:12:47;14.13;;;3.03;;
69629;SDS011;56857;52.212;5.496;2023-03-14T01:15:13;10.73;;;2.55;;
69629;SDS011;56857;52.212;5.496;2023-03-14T01:17:38;11.50;;;2.60;;
69629;SDS011;56857;52.212;5.496;2023-03-14T01:20:04;12.55;;;2.15;;
69629;SDS011;56857;52.212;5.496;2023-03-14T01:22:30;11.32;;;2.75;;
69629;SDS011;56857;52.212;5.496;2023-03-14T01:24:55;10.55;;;2.38;;
69629;SDS011;56857;52.212;5.496;2023-03-14T01:27:21;13.45;;;2.20;;
69629;SDS011;56857;52.212;5.496;2023-03-14T01:29:47;10.90;;;2.17;;
69629;SDS011;56857;52.212;5.496;2023-03-14T01:32:12;9.68;;;2.17;;
69629;SDS011;56857;52.212;5.496;2023-03-14T01:34:38;11.23;;;2.60;;
69629;SDS011;56857;52.212;5.496;2023-03-14T01:37:03;9.88;;;2.88;;
69629;SDS011;56857;52.212;5.496;2023-03-14T01:39:29;7.83;;;2.27;;
69629;SDS011;56857;52.212;5.496;2023-03-14T01:41:54;9.85;;;2.70;;
69629;SDS011;56857;52.212;5.496;2023-03-14T01:44:20;8.73;;;2.90;;
69629;SDS011;56857;52.212;5.496;2023-03-14T01:46:45;8.63;;;2.40;;
69629;SDS011;56857;52.212;5.496;2023-03-14T01:51:39;12.30;;;3.00;;
69629;SDS011;56857;52.212;5.496;2023-03-14T01:56:44;11.63;;;2.90;;
69629;SDS011;56857;52.212;5.496;2023-03-14T01:59:14;10.55;;;2.70;;
69629;SDS011;56857;52.212;5.496;2023-03-14T02:01:41;11.98;;;3.10;;
69629;SDS011;56857;52.212;5.496;2023-03-14T02:04:09;13.48;;;2.42;;
69629;SDS011;56857;52.212;5.496;2023-03-14T02:06:40;14.77;;;2.40;;
69629;SDS011;56857;52.212;5.496;2023-03-14T02:09:22;8.40;;;1.92;;
69629;SDS011;56857;52.212;5.496;2023-03-14T02:11:47;9.95;;;2.00;;
69629;SDS011;56857;52.212;5.496;2023-03-14T02:14:19;9.15;;;2.13;;
69629;SDS011;56857;52.212;5.496;2023-03-14T02:16:50;10.90;;;1.88;;
69629;SDS011;56857;52.212;5.496;2023-03-14T02:19:17;9.65;;;2.00;;
69629;SDS011;56857;52.212;5.496;2023-03-14T02:21:54;9.73;;;2.20;;
69629;SDS011;56857;52.212;5.496;2023-03-14T02:24:39;9.32;;;2.25;;
69629;SDS011;56857;52.212;5.496;2023-03-14T02:27:24;11.70;;;2.35;;
69629;SDS011;56857;52.212;5.496;2023-03-14T02:30:01;10.98;;;2.53;;
69629;SDS011;56857;52.212;5.496;2023-03-14T02:32:30;13.02;;;2.58;;
69629;SDS011;56857;52.212;5.496;2023-03-14T02:35:00;15.13;;;3.08;;
69629;SDS011;56857;52.212;5.496;2023-03-14T02:37:35;13.82;;;2.42;;
69629;SDS011;56857;52.212;5.496;2023-03-14T02:40:06;8.95;;;1.75;;
69629;SDS011;56857;52.212;5.496;2023-03-14T02:42:32;5.90;;;2.20;;
69629;SDS011;56857;52.212;5.496;2023-03-14T02:47:56;9.13;;;1.95;;
69629;SDS011;56857;52.212;5.496;2023-03-14T02:50:26;9.27;;;2.05;;
69629;SDS011;56857;52.212;5.496;2023-03-14T02:52:56;9.95;;;2.00;;
69629;SDS011;56857;52.212;5.496;2023-03-14T02:55:22;14.27;;;1.83;;
69629;SDS011;56857;52.212;5.496;2023-03-14T02:57:48;8.55;;;1.70;;
69629;SDS011;56857;52.212;5.496;2023-03-14T03:00:13;10.73;;;2.60;;
69629;SDS011;56857;52.212;5.496;2023-03-14T03:02:39;10.85;;;2.60;;
69629;SDS011;56857;52.212;5.496;2023-03-14T03:05:04;12.45;;;2.30;;
69629;SDS011;56857;52.212;5.496;2023-03-14T03:07:30;13.43;;;2.47;;
69629;SDS011;56857;52.212;5.496;2023-03-14T03:09:55;8.27;;;2.10;;
69629;SDS011;56857;52.212;5.496;2023-03-14T03:12:20;11.93;;;2.70;;
69629;SDS011;56857;52.212;5.496;2023-03-14T03:14:45;8.38;;;2.30;;
69629;SDS011;56857;52.212;5.496;2023-03-14T03:17:11;7.60;;;2.45;;
69629;SDS011;56857;52.212;5.496;2023-03-14T03:19:36;10.48;;;2.47;;
69629;SDS011;56857;52.212;5.496;2023-03-14T03:22:01;11.20;;;2.40;;
69629;SDS011;56857;52.212;5.496;2023-03-14T03:24:27;12.93;;;3.22;;
69629;SDS011;56857;52.212;5.496;2023-03-14T03:26:52;12.23;;;3.05;;
69629;SDS011;56857;52.212;5.496;2023-03-14T03:29:18;8.95;;;2.78;;
69629;SDS011;56857;52.212;5.496;2023-03-14T03:31:43;11.55;;;3.13;;
69629;SDS011;56857;52.212;5.496;2023-03-14T03:34:08;8.45;;;2.40;;
69629;SDS011;56857;52.212;5.496;2023-03-14T03:36:34;9.00;;;2.37;;
69629;SDS011;56857;52.212;5.496;2023-03-14T03:38:59;11.52;;;3.15;;
69629;SDS011;56857;52.212;5.496;2023-03-14T03:41:24;10.65;;;2.67;;
69629;SDS011;56857;52.212;5.496;2023-03-14T03:43:50;14.52;;;3.38;;
69629;SDS011;56857;52.212;5.496;2023-03-14T03:46:15;14.87;;;2.87;;
69629;SDS011;56857;52.212;5.496;2023-03-14T03:48:41;13.38;;;3.15;;
69629;SDS011;56857;52.212;5.496;2023-03-14T03:51:06;13.02;;;2.95;;
69629;SDS011;56857;52.212;5.496;2023-03-14T03:53:32;9.40;;;2.60;;
69629;SDS011;56857;52.212;5.496;2023-03-14T03:55:57;11.88;;;3.05;;
69629;SDS011;56857;52.212;5.496;2023-03-14T03:58:22;10.57;;;2.57;;
69629;SDS011;56857;52.212;5.496;2023-03-14T04:00:49;11.63;;;2.88;;
69629;SDS011;56857;52.212;5.496;2023-03-14T04:03:14;10.77;;;2.80;;
69629;SDS011;56857;52.212;5.496;2023-03-14T04:05:40;8.15;;;2.33;;
69629;SDS011;56857;52.212;5.496;2023-03-14T04:08:05;8.32;;;2.78;;
69629;SDS011;56857;52.212;5.496;2023-03-14T04:10:33;12.00;;;2.75;;
69629;SDS011;56857;52.212;5.496;2023-03-14T04:12:59;11.20;;;2.78;;
69629;SDS011;56857;52.212;5.496;2023-03-14T04:15:25;9.55;;;2.35;;
69629;SDS011;56857;52.212;5.496;2023-03-14T04:17:50;10.80;;;2.78;;
69629;SDS011;56857;52.212;5.496;2023-03-14T04:20:15;12.80;;;2.50;;
69629;SDS011;56857;52.212;5.496;2023-03-14T04:22:41;9.38;;;2.38;;
69629;SDS011;56857;52.212;5.496;2023-03-14T04:25:06;9.00;;;2.47;;
69629;SDS011;56857;52.212;5.496;2023-03-14T04:27:32;9.80;;;2.50;;
69629;SDS011;56857;52.212;5.496;2023-03-14T04:29:57;12.53;;;2.77;;
69629;SDS011;56857;52.212;5.496;2023-03-14T04:32:23;8.70;;;2.35;;
69629;SDS011;56857;52.212;5.496;2023-03-14T04:34:48;8.77;;;2.88;;
69629;SDS011;56857;52.212;5.496;2023-03-14T04:37:14;11.32;;;2.42;;
69629;SDS011;56857;52.212;5.496;2023-03-14T04:39:39;12.60;;;3.83;;
69629;SDS011;56857;52.212;5.496;2023-03-14T04:42:04;10.80;;;2.58;;
69629;SDS011;56857;52.212;5.496;2023-03-14T04:44:30;12.80;;;2.30;;
69629;SDS011;56857;52.212;5.496;2023-03-14T04:46:55;13.02;;;2.50;;
69629;SDS011;56857;52.212;5.496;2023-03-14T04:49:21;13.55;;;2.60;;
69629;SDS011;56857;52.212;5.496;2023-03-14T04:51:46;13.63;;;2.67;;
69629;SDS011;56857;52.212;5.496;2023-03-14T04:54:11;13.50;;;2.87;;
69629;SDS011;56857;52.212;5.496;2023-03-14T04:56:37;9.82;;;2.60;;
69629;SDS011;56857;52.212;5.496;2023-03-14T04:59:02;12.15;;;2.72;;
69629;SDS011;56857;52.212;5.496;2023-03-14T05:01:28;12.95;;;2.53;;
69629;SDS011;56857;52.212;5.496;2023-03-14T05:03:54;8.90;;;2.10;;
69629;SDS011;56857;52.212;5.496;2023-03-14T05:06:19;8.13;;;2.30;;
69629;SDS011;56857;52.212;5.496;2023-03-14T05:08:45;12.63;;;2.83;;
69629;SDS011;56857;52.212;5.496;2023-03-14T05:11:10;9.80;;;2.70;;
69629;SDS011;56857;52.212;5.496;2023-03-14T05:13:36;8.90;;;2.75;;
69629;SDS011;56857;52.212;5.496;2023-03-14T05:16:05;9.23;;;2.60;;
69629;SDS011;56857;52.212;5.496;2023-03-14T05:18:31;9.93;;;2.63;;
69629;SDS011;56857;52.212;5.496;2023-03-14T05:20:57;9.37;;;3.33;;
69629;SDS011;56857;52.212;5.496;2023-03-14T05:23:22;15.05;;;2.80;;
69629;SDS011;56857;52.212;5.496;2023-03-14T05:25:48;13.30;;;3.20;;
69629;SDS011;56857;52.212;5.496;2023-03-14T05:28:13;10.88;;;3.33;;
69629;SDS011;56857;52.212;5.496;2023-03-14T05:30:38;13.18;;;3.55;;
69629;SDS011;56857;52.212;5.496;2023-03-14T05:33:04;10.00;;;2.87;;
69629;SDS011;56857;52.212;5.496;2023-03-14T05:35:29;12.57;;;2.65;;
69629;SDS011;56857;52.212;5.496;2023-03-14T05:37:54;10.20;;;2.73;;
69629;SDS011;56857;52.212;5.496;2023-03-14T05:40:19;13.55;;;3.40;;
69629;SDS011;56857;52.212;5.496;2023-03-14T05:42:45;10.33;;;2.80;;
69629;SDS011;56857;52.212;5.496;2023-03-14T05:45:10;10.02;;;2.95;;
69629;SDS011;56857;52.212;5.496;2023-03-14T05:47:36;13.27;;;3.22;;
69629;SDS011;56857;52.212;5.496;2023-03-14T05:50:01;8.20;;;2.67;;
69629;SDS011;56857;52.212;5.496;2023-03-14T05:52:27;11.07;;;2.95;;
69629;SDS011;56857;52.212;5.496;2023-03-14T05:54:53;13.77;;;3.17;;
69629;SDS011;56857;52.212;5.496;2023-03-14T05:57:18;12.97;;;3.53;;
69629;SDS011;56857;52.212;5.496;2023-03-14T05:59:43;10.60;;;3.53;;
69629;SDS011;56857;52.212;5.496;2023-03-14T06:02:09;10.17;;;3.53;;
69629;SDS011;56857;52.212;5.496;2023-03-14T06:04:34;10.15;;;3.70;;
69629;SDS011;56857;52.212;5.496;2023-03-14T06:06:59;11.05;;;3.70;;
69629;SDS011;56857;52.212;5.496;2023-03-14T06:09:25;11.48;;;3.65;;
69629;SDS011;56857;52.212;5.496;2023-03-14T06:11:51;9.25;;;3.40;;
69629;SDS011;56857;52.212;5.496;2023-03-14T06:14:17;12.38;;;3.83;;
69629;SDS011;56857;52.212;5.496;2023-03-14T06:16:42;11.38;;;3.83;;
69629;SDS011;56857;52.212;5.496;2023-03-14T06:19:07;8.77;;;3.78;;
69629;SDS011;56857;52.212;5.496;2023-03-14T06:21:33;9.45;;;4.20;;
69629;SDS011;56857;52.212;5.496;2023-03-14T06:23:58;11.27;;;3.60;;
69629;SDS011;56857;52.212;5.496;2023-03-14T06:26:24;9.82;;;4.35;;
69629;SDS011;56857;52.212;5.496;2023-03-14T06:28:49;11.35;;;4.18;;
69629;SDS011;56857;52.212;5.496;2023-03-14T06:31:15;10.70;;;4.35;;
69629;SDS011;56857;52.212;5.496;2023-03-14T06:33:40;11.73;;;4.20;;
69629;SDS011;56857;52.212;5.496;2023-03-14T06:36:06;13.43;;;5.65;;
69629;SDS011;56857;52.212;5.496;2023-03-14T06:38:32;10.95;;;4.97;;
69629;SDS011;56857;52.212;5.496;2023-03-14T06:41:02;10.07;;;4.45;;
69629;SDS011;56857;52.212;5.496;2023-03-14T06:43:30;9.52;;;3.90;;
69629;SDS011;56857;52.212;5.496;2023-03-14T06:45:55;9.80;;;4.05;;
69629;SDS011;56857;52.212;5.496;2023-03-14T06:48:21;5.63;;;1.77;;
69629;SDS011;56857;52.212;5.496;2023-03-14T06:50:47;3.33;;;1.23;;
69629;SDS011;56857;52.212;5.496;2023-03-14T06:53:13;6.53;;;1.70;;
69629;SDS011;56857;52.212;5.496;2023-03-14T06:55:38;5.22;;;1.42;;
69629;SDS011;56857;52.212;5.496;2023-03-14T06:58:03;3.80;;;1.30;;
69629;SDS011;56857;52.212;5.496;2023-03-14T07:00:29;5.32;;;1.42;;
69629;SDS011;56857;52.212;5.496;2023-03-14T07:02:54;2.00;;;1.03;;
69629;SDS011;56857;52.212;5.496;2023-03-14T07:05:19;4.72;;;1.20;;
69629;SDS011;56857;52.212;5.496;2023-03-14T07:07:45;4.55;;;1.13;;
69629;SDS011;56857;52.212;5.496;2023-03-14T07:10:10;4.57;;;1.60;;
69629;SDS011;56857;52.212;5.496;2023-03-14T07:12:36;7.07;;;1.60;;
69629;SDS011;56857;52.212;5.496;2023-03-14T07:15:01;2.88;;;1.20;;
69629;SDS011;56857;52.212;5.496;2023-03-14T07:17:27;3.55;;;1.10;;
69629;SDS011;56857;52.212;5.496;2023-03-14T07:19:52;3.45;;;1.02;;
69629;SDS011;56857;52.212;5.496;2023-03-14T07:22:17;1.17;;;0.80;;
69629;SDS011;56857;52.212;5.496;2023-03-14T07:24:42;5.53;;;1.48;;
69629;SDS011;56857;52.212;5.496;2023-03-14T07:27:08;4.32;;;1.15;;
69629;SDS011;56857;52.212;5.496;2023-03-14T07:29:33;5.35;;;1.45;;
69629;SDS011;56857;52.212;5.496;2023-03-14T07:31:58;3.58;;;1.02;;
69629;SDS011;56857;52.212;5.496;2023-03-14T07:34:24;3.47;;;1.20;;
69629;SDS011;56857;52.212;5.496;2023-03-14T07:36:49;3.70;;;1.20;;
69629;SDS011;56857;52.212;5.496;2023-03-14T07:39:14;3.97;;;2.17;;
69629;SDS011;56857;52.212;5.496;2023-03-14T07:41:40;3.45;;;1.13;;
69629;SDS011;56857;52.212;5.496;2023-03-14T07:44:05;4.28;;;1.75;;
69629;SDS011;56857;52.212;5.496;2023-03-14T07:46:30;4.95;;;1.20;;
69629;SDS011;56857;52.212;5.496;2023-03-14T07:48:56;3.42;;;1.35;;
69629;SDS011;56857;52.212;5.496;2023-03-14T07:51:21;5.15;;;1.50;;
69629;SDS011;56857;52.212;5.496;2023-03-14T07:53:46;6.90;;;1.33;;
69629;SDS011;56857;52.212;5.496;2023-03-14T07:56:12;7.53;;;1.30;;
69629;SDS011;56857;52.212;5.496;2023-03-14T07:58:37;8.32;;;1.40;;
69629;SDS011;56857;52.212;5.496;2023-03-14T08:01:02;7.35;;;1.63;;
69629;SDS011;56857;52.212;5.496;2023-03-14T08:03:28;11.18;;;1.25;;
69629;SDS011;56857;52.212;5.496;2023-03-14T08:05:53;16.13;;;1.88;;
69629;SDS011;56857;52.212;5.496;2023-03-14T08:08:19;5.80;;;1.45;;
69629;SDS011;56857;52.212;5.496;2023-03-14T08:10:44;4.57;;;1.02;;
69629;SDS011;56857;52.212;5.496;2023-03-14T08:13:10;6.03;;;1.13;;
69629;SDS011;56857;52.212;5.496;2023-03-14T08:15:36;6.18;;;1.27;;
69629;SDS011;56857;52.212;5.496;2023-03-14T08:18:01;6.60;;;1.38;;
69629;SDS011;56857;52.212;5.496;2023-03-14T08:20:27;6.30;;;1.20;;
69629;SDS011;56857;52.212;5.496;2023-03-14T08:22:57;4.00;;;1.10;;
69629;SDS011;56857;52.212;5.496;2023-03-14T08:25:24;2.97;;;0.80;;
69629;SDS011;56857;52.212;5.496;2023-03-14T08:27:51;7.35;;;1.10;;
69629;SDS011;56857;52.212;5.496;2023-03-14T08:30:17;5.18;;;1.15;;
69629;SDS011;56857;52.212;5.496;2023-03-14T08:32:43;3.88;;;1.33;;
69629;SDS011;56857;52.212;5.496;2023-03-14T08:35:09;3.78;;;0.90;;
69629;SDS011;56857;52.212;5.496;2023-03-14T08:37:36;2.65;;;0.82;;
69629;SDS011;56857;52.212;5.496;2023-03-14T08:40:02;3.30;;;0.90;;
69629;SDS011;56857;52.212;5.496;2023-03-14T08:42:28;5.68;;;1.30;;
69629;SDS011;56857;52.212;5.496;2023-03-14T08:44:54;3.60;;;0.80;;
69629;SDS011;56857;52.212;5.496;2023-03-14T08:47:19;5.30;;;1.45;;
69629;SDS011;56857;52.212;5.496;2023-03-14T08:49:44;2.70;;;0.90;;
69629;SDS011;56857;52.212;5.496;2023-03-14T08:52:10;6.63;;;1.55;;
69629;SDS011;56857;52.212;5.496;2023-03-14T08:54:35;3.60;;;0.90;;
69629;SDS011;56857;52.212;5.496;2023-03-14T08:57:01;4.07;;;1.00;;
69629;SDS011;56857;52.212;5.496;2023-03-14T08:59:26;4.20;;;1.20;;
69629;SDS011;56857;52.212;5.496;2023-03-14T09:01:51;7.90;;;1.13;;
69629;SDS011;56857;52.212;5.496;2023-03-14T09:04:17;6.60;;;1.40;;
69629;SDS011;56857;52.212;5.496;2023-03-14T09:06:42;5.20;;;1.38;;
69629;SDS011;56857;52.212;5.496;2023-03-14T09:09:08;9.10;;;1.90;;
69629;SDS011;56857;52.212;5.496;2023-03-14T09:11:33;11.82;;;1.60;;
69629;SDS011;56857;52.212;5.496;2023-03-14T09:13:59;11.13;;;2.20;;
69629;SDS011;56857;52.212;5.496;2023-03-14T09:16:24;7.38;;;1.15;;
69629;SDS011;56857;52.212;5.496;2023-03-14T09:18:50;8.00;;;1.60;;
69629;SDS011;56857;52.212;5.496;2023-03-14T09:21:15;10.05;;;1.60;;
69629;SDS011;56857;52.212;5.496;2023-03-14T09:23:41;9.40;;;1.60;;
69629;SDS011;56857;52.212;5.496;2023-03-14T09:26:07;13.63;;;1.42;;
69629;SDS011;56857;52.212;5.496;2023-03-14T09:28:32;7.93;;;1.58;;
69629;SDS011;56857;52.212;5.496;2023-03-14T09:30:58;10.05;;;1.75;;
69629;SDS011;56857;52.212;5.496;2023-03-14T09:33:30;8.52;;;2.10;;
69629;SDS011;56857;52.212;5.496;2023-03-14T09:35:58;14.35;;;2.13;;
69629;SDS011;56857;52.212;5.496;2023-03-14T09:38:23;12.60;;;2.55;;
69629;SDS011;56857;52.212;5.496;2023-03-14T09:40:49;14.77;;;2.40;;
69629;SDS011;56857;52.212;5.496;2023-03-14T09:43:14;15.95;;;2.58;;
69629;SDS011;56857;52.212;5.496;2023-03-14T09:45:41;14.23;;;2.38;;
69629;SDS011;56857;52.212;5.496;2023-03-14T09:48:14;15.95;;;2.63;;
69629;SDS011;56857;52.212;5.496;2023-03-14T09:50:42;15.77;;;2.30;;
69629;SDS011;56857;52.212;5.496;2023-03-14T09:53:12;11.70;;;3.30;;
69629;SDS011;56857;52.212;5.496;2023-03-14T09:55:41;15.18;;;2.70;;
69629;SDS011;56857;52.212;5.496;2023-03-14T09:58:15;19.60;;;2.45;;
69629;SDS011;56857;52.212;5.496;2023-03-14T10:00:43;16.33;;;3.53;;
69629;SDS011;56857;52.212;5.496;2023-03-14T10:05:37;15.50;;;2.40;;
69629;SDS011;56857;52.212;5.496;2023-03-14T10:08:04;14.10;;;2.42;;
69629;SDS011;56857;52.212;5.496;2023-03-14T10:10:30;14.30;;;2.15;;
69629;SDS011;56857;52.212;5.496;2023-03-14T10:13:04;13.43;;;2.83;;
69629;SDS011;56857;52.212;5.496;2023-03-14T10:15:38;15.13;;;2.17;;
69629;SDS011;56857;52.212;5.496;2023-03-14T10:18:05;12.30;;;2.40;;
69629;SDS011;56857;52.212;5.496;2023-03-14T10:20:37;8.93;;;1.90;;
69629;SDS011;56857;52.212;5.496;2023-03-14T10:23:05;11.85;;;2.00;;
69629;SDS011;56857;52.212;5.496;2023-03-14T10:25:32;12.68;;;2.42;;
69629;SDS011;56857;52.212;5.496;2023-03-14T10:28:00;19.35;;;2.58;;
69629;SDS011;56857;52.212;5.496;2023-03-14T10:30:43;17.80;;;2.75;;
69629;SDS011;56857;52.212;5.496;2023-03-14T10:33:11;16.60;;;4.18;;
69629;SDS011;56857;52.212;5.496;2023-03-14T10:35:45;13.50;;;2.45;;
69629;SDS011;56857;52.212;5.496;2023-03-14T10:38:17;13.05;;;2.25;;
69629;SDS011;56857;52.212;5.496;2023-03-14T10:40:49;15.13;;;2.10;;
69629;SDS011;56857;52.212;5.496;2023-03-14T10:43:17;19.45;;;3.25;;
69629;SDS011;56857;52.212;5.496;2023-03-14T10:45:44;14.60;;;2.80;;
69629;SDS011;56857;52.212;5.496;2023-03-14T10:48:19;16.08;;;2.88;;
69629;SDS011;56857;52.212;5.496;2023-03-14T10:50:53;16.27;;;2.58;;
69629;SDS011;56857;52.212;5.496;2023-03-14T10:53:21;19.65;;;2.90;;
69629;SDS011;56857;52.212;5.496;2023-03-14T10:55:46;18.48;;;2.80;;
69629;SDS011;56857;52.212;5.496;2023-03-14T10:58:22;19.33;;;3.00;;
69629;SDS011;56857;52.212;5.496;2023-03-14T11:00:52;26.27;;;4.20;;
69629;SDS011;56857;52.212;5.496;2023-03-14T11:03:25;17.65;;;2.85;;
69629;SDS011;56857;52.212;5.496;2023-03-14T11:05:57;11.82;;;2.53;;
69629;SDS011;56857;52.212;5.496;2023-03-14T11:17:10;16.52;;;2.53;;
69629;SDS011;56857;52.212;5.496;2023-03-14T11:25:26;8.75;;;2.22;;
69629;SDS011;56857;52.212;5.496;2023-03-14T11:28:14;15.18;;;2.10;;
69629;SDS011;56857;52.212;5.496;2023-03-14T11:30:48;16.52;;;2.25;;
69629;SDS011;56857;52.212;5.496;2023-03-14T11:33:17;20.88;;;3.67;;
69629;SDS011;56857;52.212;5.496;2023-03-14T11:38:46;19.92;;;2.80;;
69629;SDS011;56857;52.212;5.496;2023-03-14T11:41:15;12.07;;;2.70;;
69629;SDS011;56857;52.212;5.496;2023-03-14T11:43:48;10.93;;;2.40;;
69629;SDS011;56857;52.212;5.496;2023-03-14T11:46:28;14.55;;;2.50;;
69629;SDS011;56857;52.212;5.496;2023-03-14T11:49:03;12.45;;;2.42;;
69629;SDS011;56857;52.212;5.496;2023-03-14T11:51:41;7.93;;;2.10;;
69629;SDS011;56857;52.212;5.496;2023-03-14T11:54:14;14.32;;;1.70;;
69629;SDS011;56857;52.212;5.496;2023-03-14T11:57:05;10.05;;;1.90;;
69629;SDS011;56857;52.212;5.496;2023-03-14T12:10:16;15.48;;;3.03;;
69629;SDS011;56857;52.212;5.496;2023-03-14T12:12:41;15.00;;;2.05;;
69629;SDS011;56857;52.212;5.496;2023-03-14T12:15:15;13.35;;;2.10;;
69629;SDS011;56857;52.212;5.496;2023-03-14T12:17:44;12.07;;;1.95;;
69629;SDS011;56857;52.212;5.496;2023-03-14T12:22:50;10.70;;;2.67;;
69629;SDS011;56857;52.212;5.496;2023-03-14T12:35:37;9.55;;;1.60;;
69629;SDS011;56857;52.212;5.496;2023-03-14T12:41:20;9.50;;;1.92;;
69629;SDS011;56857;52.212;5.496;2023-03-14T12:44:38;9.35;;;2.10;;
69629;SDS011;56857;52.212;5.496;2023-03-14T12:46:58;9.00;;;1.73;;
69629;SDS011;56857;52.212;5.496;2023-03-14T12:49:31;9.68;;;1.50;;
69629;SDS011;56857;52.212;5.496;2023-03-14T12:52:01;11.52;;;2.08;;
69629;SDS011;56857;52.212;5.496;2023-03-14T13:00:29;11.45;;;1.50;;
69629;SDS011;56857;52.212;5.496;2023-03-14T13:03:15;6.75;;;1.60;;
69629;SDS011;56857;52.212;5.496;2023-03-14T13:05:53;6.93;;;1.75;;
69629;SDS011;56857;52.212;5.496;2023-03-14T13:11:26;8.43;;;1.70;;
69629;SDS011;56857;52.212;5.496;2023-03-14T13:13:57;8.02;;;1.70;;
69629;SDS011;56857;52.212;5.496;2023-03-14T13:16:24;6.82;;;1.42;;
69629;SDS011;56857;52.212;5.496;2023-03-14T13:18:59;7.85;;;1.80;;
69629;SDS011;56857;52.212;5.496;2023-03-14T13:21:28;10.57;;;1.77;;
69629;SDS011;56857;52.212;5.496;2023-03-14T13:24:01;7.97;;;1.67;;
69629;SDS011;56857;52.212;5.496;2023-03-14T13:26:32;5.60;;;1.33;;
69629;SDS011;56857;52.212;5.496;2023-03-14T13:29:08;7.38;;;1.63;;
69629;SDS011;56857;52.212;5.496;2023-03-14T13:31:52;12.38;;;1.80;;
69629;SDS011;56857;52.212;5.496;2023-03-14T13:34:19;13.20;;;1.83;;
69629;SDS011;56857;52.212;5.496;2023-03-14T13:36:45;8.18;;;1.65;;
69629;SDS011;56857;52.212;5.496;2023-03-14T13:39:17;10.30;;;1.70;;
69629;SDS011;56857;52.212;5.496;2023-03-14T13:41:47;8.73;;;1.50;;
69629;SDS011;56857;52.212;5.496;2023-03-14T13:44:17;10.90;;;1.63;;
69629;SDS011;56857;52.212;5.496;2023-03-14T13:46:48;8.10;;;1.58;;
69629;SDS011;56857;52.212;5.496;2023-03-14T13:49:17;10.93;;;1.55;;
69629;SDS011;56857;52.212;5.496;2023-03-14T13:51:49;11.70;;;3.40;;
69629;SDS011;56857;52.212;5.496;2023-03-14T13:54:18;7.55;;;1.55;;
69629;SDS011;56857;52.212;5.496;2023-03-14T13:56:45;13.20;;;1.98;;
69629;SDS011;56857;52.212;5.496;2023-03-14T13:59:22;6.97;;;1.35;;
69629;SDS011;56857;52.212;5.496;2023-03-14T14:01:47;8.73;;;1.48;;
69629;SDS011;56857;52.212;5.496;2023-03-14T14:04:16;5.78;;;1.63;;
69629;SDS011;56857;52.212;5.496;2023-03-14T14:06:44;10.93;;;1.60;;
69629;SDS011;56857;52.212;5.496;2023-03-14T14:09:14;10.93;;;2.47;;
69629;SDS011;56857;52.212;5.496;2023-03-14T14:14:19;7.15;;;1.67;;
69629;SDS011;56857;52.212;5.496;2023-03-14T14:16:45;11.68;;;1.98;;
69629;SDS011;56857;52.212;5.496;2023-03-14T14:19:12;7.53;;;1.77;;
69629;SDS011;56857;52.212;5.496;2023-03-14T14:21:39;7.38;;;1.80;;
69629;SDS011;56857;52.212;5.496;2023-03-14T14:24:04;6.65;;;1.85;;
69629;SDS011;56857;52.212;5.496;2023-03-14T14:26:30;10.18;;;2.20;;
69629;SDS011;56857;52.212;5.496;2023-03-14T14:29:02;7.93;;;1.90;;
69629;SDS011;56857;52.212;5.496;2023-03-14T14:31:31;8.00;;;1.63;;
69629;SDS011;56857;52.212;5.496;2023-03-14T14:34:00;14.57;;;1.73;;
69629;SDS011;56857;52.212;5.496;2023-03-14T14:36:37;9.13;;;1.65;;
69629;SDS011;56857;52.212;5.496;2023-03-14T14:39:19;13.15;;;1.77;;
69629;SDS011;56857;52.212;5.496;2023-03-14T14:41:47;11.63;;;2.47;;
69629;SDS011;56857;52.212;5.496;2023-03-14T14:44:15;6.28;;;1.50;;
69629;SDS011;56857;52.212;5.496;2023-03-14T14:49:15;5.88;;;1.73;;
69629;SDS011;56857;52.212;5.496;2023-03-14T14:51:45;10.80;;;1.85;;
69629;SDS011;56857;52.212;5.496;2023-03-14T14:54:15;6.75;;;1.30;;
69629;SDS011;56857;52.212;5.496;2023-03-14T14:56:46;7.53;;;1.60;;
69629;SDS011;56857;52.212;5.496;2023-03-14T14:59:26;10.15;;;1.85;;
69629;SDS011;56857;52.212;5.496;2023-03-14T15:01:59;6.88;;;1.88;;
69629;SDS011;56857;52.212;5.496;2023-03-14T15:04:29;6.85;;;1.60;;
69629;SDS011;56857;52.212;5.496;2023-03-14T15:06:56;6.95;;;1.80;;
69629;SDS011;56857;52.212;5.496;2023-03-14T15:09:22;10.55;;;1.42;;
69629;SDS011;56857;52.212;5.496;2023-03-14T15:11:47;9.00;;;1.80;;
69629;SDS011;56857;52.212;5.496;2023-03-14T15:14:14;8.63;;;1.80;;
69629;SDS011;56857;52.212;5.496;2023-03-14T15:16:39;9.63;;;1.63;;
69629;SDS011;56857;52.212;5.496;2023-03-14T15:19:21;9.05;;;1.58;;
69629;SDS011;56857;52.212;5.496;2023-03-14T15:21:49;8.10;;;1.67;;
69629;SDS011;56857;52.212;5.496;2023-03-14T15:24:15;12.95;;;2.28;;
69629;SDS011;56857;52.212;5.496;2023-03-14T15:26:40;9.60;;;1.70;;
69629;SDS011;56857;52.212;5.496;2023-03-14T15:29:06;11.43;;;2.45;;
69629;SDS011;56857;52.212;5.496;2023-03-14T15:31:31;8.40;;;1.40;;
69629;SDS011;56857;52.212;5.496;2023-03-14T15:33:56;7.73;;;1.67;;
69629;SDS011;56857;52.212;5.496;2023-03-14T15:36:26;10.23;;;1.63;;
69629;SDS011;56857;52.212;5.496;2023-03-14T15:38:53;11.13;;;1.83;;
69629;SDS011;56857;52.212;5.496;2023-03-14T15:41:19;9.48;;;1.55;;
69629;SDS011;56857;52.212;5.496;2023-03-14T15:43:46;8.40;;;1.65;;
69629;SDS011;56857;52.212;5.496;2023-03-14T15:46:11;8.75;;;1.50;;
69629;SDS011;56857;52.212;5.496;2023-03-14T15:48:37;7.75;;;1.58;;
69629;SDS011;56857;52.212;5.496;2023-03-14T15:51:03;9.63;;;1.70;;
69629;SDS011;56857;52.212;5.496;2023-03-14T15:53:28;6.85;;;1.50;;